Time;durP1;ratioP1;P1;durP2;ratioP2;P2;SDS_P1;SDS_P2;PMS_P1;PMS_P2;Temp;Humidity;BMP_temperature;BMP_pressure;BME280_temperature;BME280_humidity;BME280_pressure;Samples;Min_cycle;Max_cycle;Signal;HPM_P1;HPM_P2
2021/10/16 00:02:17;;;;;;;21.38;12.55;;;12.80;84.60;;;;;;5032387;28;20064;-83
2021/10/16 00:04:45;;;;;;;25.48;12.38;;;12.70;84.60;;;;;;5018124;28;20431;-83
2021/10/16 00:07:11;;;;;;;24.58;11.75;;;12.80;84.20;;;;;;5017864;28;20105;-83
2021/10/16 00:09:37;;;;;;;22.15;11.75;;;12.80;83.90;;;;;;5031781;28;20061;-83
2021/10/16 00:12:03;;;;;;;23.92;12.63;;;12.80;83.80;;;;;;5036529;28;20511;-83
2021/10/16 00:14:29;;;;;;;28.13;12.85;;;12.70;84.20;;;;;;5036635;28;20485;-83
2021/10/16 00:16:55;;;;;;;22.50;12.25;;;12.70;84.10;;;;;;5022662;28;20026;-83
2021/10/16 00:19:21;;;;;;;24.65;12.20;;;12.70;84.20;;;;;;5017695;28;20030;-83
2021/10/16 00:21:49;;;;;;;27.52;13.55;;;12.70;84.20;;;;;;5033376;28;20563;-83
2021/10/16 00:24:14;;;;;;;22.55;12.73;;;12.60;84.20;;;;;;5036668;28;20064;-82
2021/10/16 00:26:40;;;;;;;24.63;12.60;;;12.70;84.00;;;;;;5037667;28;20036;-83
2021/10/16 00:29:06;;;;;;;23.10;12.80;;;12.70;83.70;;;;;;5037558;28;20033;-83
2021/10/16 00:31:31;;;;;;;21.90;12.38;;;12.70;83.50;;;;;;5025039;28;20030;-83
2021/10/16 00:33:57;;;;;;;24.20;12.57;;;12.70;83.00;;;;;;5017777;28;20034;-83
2021/10/16 00:36:23;;;;;;;21.15;11.50;;;12.60;82.90;;;;;;5034323;28;20030;-84
2021/10/16 00:39:09;;;;;;;25.85;12.45;;;12.60;82.70;;;;;;5037071;28;20132;-83
2021/10/16 00:41:34;;;;;;;20.88;12.38;;;12.60;82.60;;;;;;5021296;28;20457;-83
2021/10/16 00:44:34;;;;;;;24.10;13.65;;;12.60;82.70;;;;;;5017610;28;20477;-84
2021/10/16 00:47:00;;;;;;;23.58;11.75;;;12.60;82.60;;;;;;5035120;28;20042;-83
2021/10/16 00:49:27;;;;;;;20.25;11.85;;;12.60;82.30;;;;;;5037328;28;20084;-83
2021/10/16 00:51:53;;;;;;;22.83;13.32;;;12.50;82.20;;;;;;5037093;28;20053;-84
2021/10/16 00:54:23;;;;;;;21.55;11.57;;;12.50;82.30;;;;;;5020705;28;20038;-84
2021/10/16 00:56:51;;;;;;;24.95;12.35;;;12.50;82.10;;;;;;5017726;28;20030;-83
2021/10/16 00:59:19;;;;;;;20.85;12.15;;;12.40;82.00;;;;;;5016979;28;20030;-84
2021/10/16 01:01:48;;;;;;;23.13;11.98;;;12.40;81.90;;;;;;5017363;28;20571;-83
2021/10/16 01:04:14;;;;;;;24.42;11.50;;;12.40;81.90;;;;;;5016963;28;20044;-84
2021/10/16 01:06:39;;;;;;;22.90;12.25;;;12.40;81.70;;;;;;5016902;28;20025;-84
2021/10/16 01:09:09;;;;;;;18.48;11.07;;;12.30;81.90;;;;;;5023225;28;20021;-84
2021/10/16 01:11:39;;;;;;;21.92;11.77;;;12.30;81.70;;;;;;5036623;28;20056;-83
2021/10/16 01:14:07;;;;;;;21.52;11.80;;;12.30;81.60;;;;;;5036911;28;20080;-83
2021/10/16 01:16:34;;;;;;;19.35;12.32;;;12.30;81.80;;;;;;5036242;28;20026;-83
2021/10/16 01:19:09;;;;;;;21.38;12.25;;;12.30;81.80;;;;;;5035227;28;20041;-83
2021/10/16 01:21:40;;;;;;;19.60;11.10;;;12.30;81.80;;;;;;5035657;28;20033;-83
2021/10/16 01:24:25;;;;;;;22.55;11.82;;;12.30;81.60;;;;;;5038371;28;20462;-83
2021/10/16 01:26:51;;;;;;;20.52;11.32;;;12.20;81.40;;;;;;5031230;28;20436;-83
2021/10/16 01:29:21;;;;;;;20.45;10.75;;;12.20;81.40;;;;;;5014509;28;20370;-83
2021/10/16 01:31:47;;;;;;;23.35;11.68;;;12.20;81.50;;;;;;5025310;28;20422;-83
2021/10/16 01:34:13;;;;;;;18.92;11.75;;;12.20;81.50;;;;;;5034306;28;20044;-83
2021/10/16 01:36:47;;;;;;;20.30;11.02;;;12.10;81.50;;;;;;5036311;28;20491;-84
2021/10/16 01:39:14;;;;;;;19.85;11.93;;;12.10;81.70;;;;;;5035664;28;20053;-84
2021/10/16 01:41:42;;;;;;;20.83;11.68;;;12.10;81.50;;;;;;5036341;28;20069;-84
2021/10/16 01:44:09;;;;;;;19.40;10.35;;;12.10;81.40;;;;;;5034553;28;20052;-83
2021/10/16 01:46:36;;;;;;;19.77;11.10;;;12.00;81.70;;;;;;5036095;28;20043;-84
2021/10/16 01:49:09;;;;;;;25.75;12.25;;;12.00;81.90;;;;;;5035723;28;20022;-84
2021/10/16 01:51:34;;;;;;;21.52;12.43;;;12.00;81.90;;;;;;5016351;28;20076;-83
2021/10/16 01:54:01;;;;;;;21.75;11.48;;;12.00;82.00;;;;;;5016161;28;20018;-84
2021/10/16 01:56:27;;;;;;;19.48;11.40;;;12.00;82.10;;;;;;5017616;28;20052;-84
2021/10/16 01:58:54;;;;;;;19.55;10.82;;;12.00;82.00;;;;;;5035754;28;20140;-83
2021/10/16 02:01:20;;;;;;;20.15;10.90;;;12.00;81.80;;;;;;5035417;28;20029;-83
2021/10/16 02:03:46;;;;;;;21.17;11.98;;;12.00;81.70;;;;;;5035783;28;20082;-83
2021/10/16 02:06:11;;;;;;;22.80;10.10;;;12.00;81.70;;;;;;5035090;28;20120;-84
2021/10/16 02:08:40;;;;;;;16.70;9.57;;;12.00;81.50;;;;;;5035757;28;20091;-84
2021/10/16 02:11:06;;;;;;;19.92;11.75;;;11.90;81.30;;;;;;5034156;28;20491;-84
2021/10/16 02:13:31;;;;;;;19.77;11.13;;;11.90;81.70;;;;;;5025122;28;20037;-84
2021/10/16 02:16:07;;;;;;;15.38;10.30;;;11.90;81.30;;;;;;5016966;28;20066;-84
2021/10/16 02:18:32;;;;;;;17.55;10.40;;;11.90;81.20;;;;;;5035608;28;20040;-84
2021/10/16 02:20:58;;;;;;;16.80;9.98;;;11.90;81.30;;;;;;5035628;28;20124;-83
2021/10/16 02:23:24;;;;;;;15.80;9.27;;;11.80;81.10;;;;;;5033958;28;20032;-84
2021/10/16 02:25:49;;;;;;;17.23;10.30;;;11.80;81.30;;;;;;5040872;28;20451;-84
2021/10/16 02:28:15;;;;;;;22.48;10.45;;;11.80;81.40;;;;;;5035441;28;20043;-84
2021/10/16 02:30:41;;;;;;;18.67;10.68;;;11.80;81.40;;;;;;5035277;28;20025;-83
2021/10/16 02:33:07;;;;;;;21.98;11.43;;;11.80;81.70;;;;;;5035118;28;20028;-83
2021/10/16 02:35:33;;;;;;;21.10;12.18;;;11.80;81.60;;;;;;5034829;28;20025;-84
2021/10/16 02:37:58;;;;;;;19.75;11.10;;;11.80;81.50;;;;;;5035423;28;20060;-84
2021/10/16 02:40:24;;;;;;;22.15;11.82;;;11.80;81.60;;;;;;5036968;28;20567;-84
2021/10/16 02:42:50;;;;;;;23.85;11.85;;;11.80;81.80;;;;;;5035865;28;20052;-84
2021/10/16 02:45:16;;;;;;;18.60;11.43;;;11.80;81.90;;;;;;5018520;28;20054;-83
2021/10/16 02:47:42;;;;;;;19.02;11.43;;;11.80;81.70;;;;;;5017305;28;20469;-84
2021/10/16 02:50:08;;;;;;;21.40;11.13;;;11.80;81.80;;;;;;5016681;28;20156;-84
2021/10/16 02:52:33;;;;;;;21.20;10.25;;;11.80;81.60;;;;;;5030563;28;20061;-84
2021/10/16 02:54:59;;;;;;;20.85;11.32;;;11.80;81.40;;;;;;5033553;28;20043;-84
2021/10/16 02:57:25;;;;;;;19.20;10.50;;;11.80;81.40;;;;;;5034618;28;20044;-83
2021/10/16 02:59:50;;;;;;;19.73;11.13;;;11.70;81.20;;;;;;5035402;28;20128;-83
2021/10/16 03:02:16;;;;;;;21.98;11.23;;;11.70;81.30;;;;;;5034585;28;20029;-84
2021/10/16 03:04:42;;;;;;;24.35;12.15;;;11.60;81.50;;;;;;5033854;28;20152;-83
2021/10/16 03:07:07;;;;;;;19.30;11.02;;;11.60;81.30;;;;;;5034458;28;20025;-84
2021/10/16 03:09:33;;;;;;;22.08;10.73;;;11.60;81.50;;;;;;5035070;28;20049;-84
2021/10/16 03:11:59;;;;;;;16.40;9.93;;;11.60;81.50;;;;;;5034887;28;20356;-84
2021/10/16 03:14:24;;;;;;;19.55;10.63;;;11.60;81.40;;;;;;5029861;28;20580;-84
2021/10/16 03:16:50;;;;;;;15.35;9.18;;;11.60;81.40;;;;;;5015112;28;20435;-84
2021/10/16 03:19:16;;;;;;;20.27;10.75;;;11.50;81.70;;;;;;5015457;28;20040;-83
2021/10/16 03:21:42;;;;;;;20.83;10.13;;;11.50;81.70;;;;;;5015283;28;20098;-84
2021/10/16 03:24:07;;;;;;;20.65;10.45;;;11.50;81.60;;;;;;5036918;28;20021;-84
2021/10/16 03:26:33;;;;;;;23.60;11.05;;;11.50;82.10;;;;;;5054712;28;20055;-84
2021/10/16 03:28:59;;;;;;;18.88;10.70;;;11.50;82.20;;;;;;5043626;28;20033;-84
2021/10/16 03:31:25;;;;;;;22.10;12.45;;;11.50;81.90;;;;;;5013545;28;20046;-84
2021/10/16 03:33:50;;;;;;;18.98;10.52;;;11.50;82.50;;;;;;5015308;28;20028;-84
2021/10/16 03:36:16;;;;;;;20.23;10.60;;;11.40;81.80;;;;;;5015074;28;20057;-84
2021/10/16 03:38:42;;;;;;;16.85;9.32;;;11.40;81.50;;;;;;5014500;28;20029;-84
2021/10/16 03:41:07;;;;;;;18.45;10.50;;;11.40;81.50;;;;;;5014956;28;20030;-84
2021/10/16 03:43:33;;;;;;;14.98;10.18;;;11.40;81.20;;;;;;5014795;28;20021;-84
2021/10/16 03:45:59;;;;;;;15.20;8.30;;;11.30;80.90;;;;;;5014852;28;20112;-84
2021/10/16 03:48:24;;;;;;;15.43;9.80;;;11.30;81.10;;;;;;5015056;28;20097;-83
2021/10/16 03:50:50;;;;;;;18.48;10.15;;;11.30;80.80;;;;;;5015106;28;20025;-84
2021/10/16 03:53:16;;;;;;;17.83;9.90;;;11.20;81.00;;;;;;5015653;28;20037;-84
2021/10/16 03:55:42;;;;;;;17.25;9.40;;;11.20;80.90;;;;;;5034732;28;20030;-84
2021/10/16 03:58:13;;;;;;;14.35;9.13;;;11.20;80.90;;;;;;5036586;28;20053;-83
2021/10/16 04:00:39;;;;;;;16.08;8.60;;;11.20;80.80;;;;;;5038190;28;20427;-83
2021/10/16 04:03:05;;;;;;;16.00;9.88;;;11.10;80.90;;;;;;5036388;28;20030;-83
2021/10/16 04:05:33;;;;;;;16.00;9.75;;;11.20;80.80;;;;;;5037923;28;20117;-84
2021/10/16 04:07:59;;;;;;;17.02;9.75;;;11.10;80.10;;;;;;5037846;28;20101;-83
2021/10/16 04:10:24;;;;;;;16.85;9.43;;;11.10;80.20;;;;;;5024175;28;20133;-84
2021/10/16 04:12:50;;;;;;;18.30;10.13;;;11.10;80.10;;;;;;5018039;28;20045;-84
2021/10/16 04:15:22;;;;;;;16.13;9.70;;;11.00;79.80;;;;;;5023710;28;20116;-83
2021/10/16 04:17:49;;;;;;;14.20;9.30;;;10.90;79.80;;;;;;5036388;28;20026;-84
2021/10/16 04:20:15;;;;;;;13.02;8.68;;;10.90;80.20;;;;;;5037844;28;20507;-83
2021/10/16 04:22:41;;;;;;;16.65;8.90;;;10.80;80.30;;;;;;5037092;28;20025;-84
2021/10/16 04:25:07;;;;;;;15.10;9.13;;;10.80;80.70;;;;;;5048129;28;20068;-84
2021/10/16 04:27:33;;;;;;;18.30;9.98;;;10.80;80.50;;;;;;5018273;28;20108;-84
2021/10/16 04:29:58;;;;;;;15.18;9.50;;;10.70;80.70;;;;;;5017761;28;20061;-83
2021/10/16 04:32:26;;;;;;;19.20;9.50;;;10.70;80.70;;;;;;5017607;28;20018;-84
2021/10/16 04:34:52;;;;;;;16.05;9.00;;;10.70;79.90;;;;;;5017826;28;20025;-84
2021/10/16 04:37:18;;;;;;;14.63;9.18;;;10.70;80.10;;;;;;5036947;28;20021;-84
2021/10/16 04:39:44;;;;;;;14.95;8.27;;;10.60;80.20;;;;;;5036625;28;20119;-84
2021/10/16 04:42:12;;;;;;;16.05;10.05;;;10.60;80.00;;;;;;5035737;28;20037;-84
2021/10/16 04:44:39;;;;;;;16.77;9.73;;;10.60;80.10;;;;;;5036470;28;20495;-84
2021/10/16 04:47:06;;;;;;;13.88;8.80;;;10.50;80.10;;;;;;5036732;28;20022;-83
2021/10/16 04:49:36;;;;;;;14.85;8.45;;;10.50;80.30;;;;;;5037067;28;20018;-84
2021/10/16 04:52:04;;;;;;;13.40;9.13;;;10.50;80.20;;;;;;5035783;28;20034;-84
2021/10/16 04:54:30;;;;;;;13.68;8.43;;;10.50;80.00;;;;;;5036325;28;20087;-84
2021/10/16 04:56:55;;;;;;;12.85;8.93;;;10.40;79.00;;;;;;5036789;28;20025;-83
2021/10/16 04:59:21;;;;;;;12.20;8.40;;;10.30;79.80;;;;;;5036888;28;20816;-84
2021/10/16 05:01:47;;;;;;;13.48;8.75;;;10.30;79.80;;;;;;5036698;28;20052;-84
2021/10/16 05:04:12;;;;;;;13.43;8.38;;;10.30;79.80;;;;;;5036380;28;20033;-84
2021/10/16 05:06:44;;;;;;;19.60;9.35;;;10.30;79.40;;;;;;5035307;28;20033;-85
2021/10/16 05:09:09;;;;;;;11.43;8.48;;;10.30;79.60;;;;;;5017621;28;20419;-84
2021/10/16 05:11:35;;;;;;;10.98;7.50;;;10.30;79.50;;;;;;5016815;28;20025;-84
2021/10/16 05:14:01;;;;;;;18.55;8.82;;;10.40;79.20;;;;;;5016842;28;20026;-84
2021/10/16 05:16:26;;;;;;;13.73;8.43;;;10.40;78.80;;;;;;5031592;28;20070;-84
2021/10/16 05:18:52;;;;;;;14.32;8.90;;;10.30;78.70;;;;;;5042545;28;20029;-84
2021/10/16 05:21:18;;;;;;;14.73;9.38;;;10.20;78.80;;;;;;5016625;28;20026;-84
2021/10/16 05:24:03;;;;;;;16.63;8.45;;;10.20;79.50;;;;;;5016806;28;20109;-84
2021/10/16 05:26:29;;;;;;;12.50;7.80;;;10.20;78.90;;;;;;5017628;28;20649;-84
2021/10/16 05:28:55;;;;;;;15.30;7.85;;;10.20;79.00;;;;;;5036403;28;20030;-84
2021/10/16 05:31:22;;;;;;;14.05;8.85;;;10.10;78.90;;;;;;5036329;28;20053;-84
2021/10/16 05:33:49;;;;;;;15.18;8.45;;;10.10;78.70;;;;;;5036123;28;20014;-84
2021/10/16 05:36:14;;;;;;;15.85;8.55;;;10.10;77.50;;;;;;5034306;28;20091;-82
2021/10/16 05:38:40;;;;;;;15.68;8.68;;;10.00;77.20;;;;;;5035632;28;20025;-85
2021/10/16 05:41:06;;;;;;;15.85;9.05;;;10.00;78.20;;;;;;5036293;28;20036;-87
2021/10/16 05:43:32;;;;;;;12.80;8.63;;;9.90;78.60;;;;;;5033095;28;20125;-86
2021/10/16 05:45:58;;;;;;;17.85;8.75;;;9.80;78.60;;;;;;5016070;28;20069;-85
2021/10/16 05:48:24;;;;;;;9.35;6.65;;;9.80;79.00;;;;;;5016340;28;20041;-85
2021/10/16 05:50:50;;;;;;;12.13;7.20;;;9.70;78.50;;;;;;5027537;28;20396;-85
2021/10/16 05:53:16;;;;;;;11.82;7.82;;;9.50;78.10;;;;;;5030857;28;20029;-86
2021/10/16 05:55:41;;;;;;;13.27;8.10;;;9.60;79.10;;;;;;5036199;28;20025;-86
2021/10/16 05:58:07;;;;;;;10.45;7.50;;;9.50;78.80;;;;;;5030436;28;20033;-89
2021/10/16 06:00:33;;;;;;;10.63;7.43;;;9.70;78.80;;;;;;5016390;28;20029;-89
2021/10/16 06:02:59;;;;;;;11.63;7.78;;;9.70;78.40;;;;;;5030329;28;22166;-86
2021/10/16 06:05:25;;;;;;;9.50;7.20;;;9.70;77.70;;;;;;5012678;28;20025;-85
2021/10/16 06:07:51;;;;;;;14.20;9.07;;;9.70;77.80;;;;;;5014564;28;20032;-88
2021/10/16 06:10:16;;;;;;;14.18;8.05;;;9.70;78.20;;;;;;5022142;28;20949;-90
2021/10/16 06:12:42;;;;;;;14.77;9.25;;;9.70;78.20;;;;;;5032865;28;20033;-83
2021/10/16 06:15:10;;;;;;;14.32;8.77;;;9.80;78.50;;;;;;5016967;28;20025;-83
2021/10/16 06:17:36;;;;;;;11.70;8.35;;;9.70;78.40;;;;;;5013143;28;20026;-84
2021/10/16 06:20:03;;;;;;;14.98;8.95;;;9.70;78.10;;;;;;5015974;28;20044;-86
2021/10/16 06:22:28;;;;;;;13.68;9.27;;;9.70;78.50;;;;;;5019502;28;20030;-84
2021/10/16 06:24:54;;;;;;;19.85;9.82;;;9.70;78.60;;;;;;5034531;28;20032;-82
2021/10/16 06:27:20;;;;;;;17.67;9.40;;;9.70;78.50;;;;;;5055384;28;20050;-86
2021/10/16 06:29:46;;;;;;;14.93;9.30;;;9.70;78.40;;;;;;5040011;28;20446;-80
2021/10/16 06:32:15;;;;;;;13.45;8.57;;;9.70;78.10;;;;;;5034586;28;20076;-83
2021/10/16 06:34:40;;;;;;;17.80;9.38;;;9.70;78.60;;;;;;5034175;28;20029;-84
2021/10/16 06:37:06;;;;;;;18.05;9.15;;;9.70;78.90;;;;;;5030255;28;20026;-83
2021/10/16 06:39:31;;;;;;;17.73;9.10;;;9.80;78.70;;;;;;5028645;28;20044;-86
2021/10/16 06:41:57;;;;;;;17.50;9.52;;;9.80;79.00;;;;;;5024599;28;20117;-86
2021/10/16 06:44:23;;;;;;;15.45;9.25;;;9.70;79.40;;;;;;5014513;28;20061;-85
2021/10/16 06:46:48;;;;;;;17.20;9.70;;;9.60;79.60;;;;;;5014024;28;20435;-85
2021/10/16 06:49:15;;;;;;;14.85;9.20;;;9.60;80.00;;;;;;5015402;28;20029;-84
2021/10/16 06:51:42;;;;;;;18.95;10.65;;;9.60;79.60;;;;;;5027015;28;20056;-80
2021/10/16 06:54:09;;;;;;;19.00;9.63;;;9.60;80.10;;;;;;5031089;28;20542;-81
2021/10/16 06:56:36;;;;;;;16.13;9.88;;;9.60;80.10;;;;;;5015148;28;20094;-82
2021/10/16 06:59:01;;;;;;;18.67;10.18;;;9.60;80.30;;;;;;5014638;28;20048;-83
2021/10/16 07:01:27;;;;;;;14.73;9.23;;;9.70;80.10;;;;;;5028659;28;20037;-83
2021/10/16 07:03:53;;;;;;;16.30;10.27;;;9.70;79.90;;;;;;5033267;28;20394;-83
2021/10/16 07:06:19;;;;;;;16.90;9.77;;;9.80;80.10;;;;;;5033742;28;20025;-83
2021/10/16 07:08:44;;;;;;;15.77;10.07;;;9.80;80.30;;;;;;5030076;28;20104;-83
2021/10/16 07:11:10;;;;;;;21.92;12.75;;;9.90;79.70;;;;;;5035169;28;20025;-82
2021/10/16 07:13:36;;;;;;;28.60;14.40;;;10.00;79.40;;;;;;5038583;28;20026;-82
2021/10/16 07:16:02;;;;;;;27.90;14.32;;;10.10;79.10;;;;;;5034163;28;20108;-83
2021/10/16 07:18:29;;;;;;;26.73;13.93;;;10.20;79.20;;;;;;5024219;28;20029;-83
2021/10/16 07:20:55;;;;;;;28.85;15.25;;;10.20;79.10;;;;;;5025686;28;20025;-82
2021/10/16 07:23:26;;;;;;;32.83;16.33;;;10.20;79.10;;;;;;5026180;28;20053;-82
2021/10/16 07:25:54;;;;;;;33.80;16.42;;;10.30;78.90;;;;;;5027661;28;20048;-82
2021/10/16 07:28:20;;;;;;;27.42;15.32;;;10.30;78.90;;;;;;5027681;28;20065;-81
2021/10/16 07:30:45;;;;;;;23.55;15.95;;;10.50;78.90;;;;;;5026010;28;20045;-81
2021/10/16 07:33:13;;;;;;;28.08;15.93;;;10.60;78.70;;;;;;5035565;28;20026;-83
2021/10/16 07:35:43;;;;;;;29.73;17.52;;;10.60;78.70;;;;;;5032133;28;20052;-82
2021/10/16 07:38:09;;;;;;;29.23;15.50;;;10.70;78.90;;;;;;5034892;28;20044;-83
2021/10/16 07:40:35;;;;;;;16.77;12.00;;;10.80;78.80;;;;;;5035107;28;20126;-83
2021/10/16 07:43:01;;;;;;;15.00;9.70;;;10.90;78.60;;;;;;5028644;28;20041;-83
2021/10/16 07:45:27;;;;;;;16.75;10.30;;;11.00;78.50;;;;;;5028057;28;20133;-83
2021/10/16 07:47:53;;;;;;;14.77;10.68;;;11.10;78.30;;;;;;5026111;28;20429;-83
2021/10/16 07:50:19;;;;;;;21.67;12.20;;;11.20;77.90;;;;;;5022694;28;20026;-83
2021/10/16 07:52:45;;;;;;;18.45;11.18;;;11.30;77.50;;;;;;5027933;28;20076;-83
2021/10/16 07:55:11;;;;;;;14.23;10.23;;;11.40;77.50;;;;;;5025572;28;20041;-83
2021/10/16 07:57:36;;;;;;;21.38;13.48;;;11.40;77.60;;;;;;5030921;28;20099;-83
2021/10/16 08:00:04;;;;;;;22.30;13.48;;;11.40;77.90;;;;;;5024173;28;20022;-83
2021/10/16 08:02:30;;;;;;;24.33;13.57;;;11.30;78.00;;;;;;5034455;28;20506;-88
2021/10/16 08:04:58;;;;;;;19.17;12.68;;;11.30;78.50;;;;;;5035808;28;20053;-84
2021/10/16 08:07:24;;;;;;;16.02;12.05;;;11.40;78.80;;;;;;5027168;28;20037;-83
2021/10/16 08:09:50;;;;;;;19.38;12.85;;;11.40;78.70;;;;;;5019961;28;20088;-84
2021/10/16 08:12:16;;;;;;;17.58;12.32;;;11.50;78.90;;;;;;5023504;28;20025;-83
2021/10/16 08:14:42;;;;;;;16.65;10.65;;;11.50;79.30;;;;;;5022337;28;20059;-83
2021/10/16 08:17:08;;;;;;;21.10;12.05;;;11.60;80.20;;;;;;5028067;28;20128;-82
2021/10/16 08:19:34;;;;;;;18.08;11.90;;;11.70;80.90;;;;;;5030167;28;20059;-81
2021/10/16 08:22:00;;;;;;;13.45;10.10;;;11.80;80.60;;;;;;5031407;28;20036;-82
2021/10/16 08:24:25;;;;;;;18.40;12.05;;;11.90;80.70;;;;;;5030063;28;20029;-82
2021/10/16 08:26:51;;;;;;;16.27;10.02;;;11.90;80.50;;;;;;5029830;28;20075;-82
2021/10/16 08:29:17;;;;;;;14.88;9.82;;;12.00;80.10;;;;;;5024877;28;20026;-80
2021/10/16 08:31:42;;;;;;;14.55;10.00;;;12.10;80.20;;;;;;5027383;28;20100;-83
2021/10/16 08:34:08;;;;;;;11.68;8.93;;;12.10;80.50;;;;;;5027475;28;20029;-84
2021/10/16 08:36:34;;;;;;;14.30;9.63;;;12.00;80.70;;;;;;5028825;28;20040;-84
2021/10/16 08:39:00;;;;;;;13.52;8.77;;;12.00;81.40;;;;;;5026563;28;20028;-83
2021/10/16 08:41:25;;;;;;;12.15;8.52;;;11.90;81.90;;;;;;5026871;28;20105;-88
2021/10/16 08:43:51;;;;;;;14.20;10.05;;;12.00;82.30;;;;;;5026597;28;20017;-84
2021/10/16 08:46:17;;;;;;;14.80;9.30;;;12.00;82.20;;;;;;5027592;28;20117;-82
2021/10/16 08:48:43;;;;;;;14.90;10.10;;;12.20;82.10;;;;;;5028946;28;20026;-87
2021/10/16 08:51:21;;;;;;;15.63;9.45;;;12.30;81.50;;;;;;5032344;28;20023;-88
2021/10/16 08:53:47;;;;;;;12.63;9.02;;;12.30;81.50;;;;;;5031709;28;20866;-82
2021/10/16 08:56:14;;;;;;;14.63;9.65;;;12.40;81.80;;;;;;5021931;28;20496;-82
2021/10/16 08:58:40;;;;;;;14.20;10.07;;;12.50;81.70;;;;;;5019417;28;20030;-84
2021/10/16 09:01:05;;;;;;;15.93;9.65;;;12.60;81.80;;;;;;5026023;28;20072;-83
2021/10/16 09:03:34;;;;;;;15.63;10.55;;;12.60;82.30;;;;;;5028800;28;20662;-83
2021/10/16 09:06:02;;;;;;;15.88;10.45;;;12.70;81.80;;;;;;5025278;28;20032;-83
2021/10/16 09:08:33;;;;;;;15.85;9.98;;;12.80;81.40;;;;;;5032102;28;20026;-84
2021/10/16 09:11:20;;;;;;;14.07;9.20;;;12.80;81.60;;;;;;5038415;28;20079;-84
2021/10/16 09:13:58;;;;;;;16.30;10.93;;;12.90;81.00;;;;;;5027283;28;20427;-83
2021/10/16 09:16:28;;;;;;;17.40;10.85;;;13.00;81.40;;;;;;5022090;28;20034;-83
2021/10/16 09:18:58;;;;;;;14.82;9.32;;;13.10;81.70;;;;;;5025766;28;20028;-85
2021/10/16 09:21:25;;;;;;;;;;;13.10;81.60;;;;;;5025466;28;20033;-85
2021/10/16 09:24:21;;;;;;;16.48;9.98;;;13.20;81.70;;;;;;5027440;28;19905;-84
2021/10/16 09:27:01;;;;;;;15.00;9.38;;;13.20;81.40;;;;;;5031775;28;20049;-85
2021/10/16 09:29:29;;;;;;;16.25;11.00;;;13.30;80.90;;;;;;5028486;28;20476;-84
2021/10/16 09:32:10;;;;;;;18.73;11.65;;;13.40;80.90;;;;;;5027704;28;20060;-82
2021/10/16 09:34:46;;;;;;;17.63;10.85;;;13.40;80.60;;;;;;5026631;28;20187;-86
2021/10/16 09:37:19;;;;;;;18.73;12.00;;;13.40;80.50;;;;;;5026922;28;20021;-82
2021/10/16 09:39:47;;;;;;;17.65;11.25;;;13.50;80.90;;;;;;5025013;28;20018;-80
2021/10/16 09:42:18;;;;;;;19.83;12.60;;;13.50;80.40;;;;;;5026863;28;20013;-82
2021/10/16 09:44:44;;;;;;;25.30;14.52;;;13.60;80.30;;;;;;5025581;28;20079;-82
2021/10/16 09:47:18;;;;;;;31.15;18.42;;;13.70;80.00;;;;;;5023950;28;20034;-85
2021/10/16 09:49:59;;;;;;;27.92;17.15;;;13.70;80.60;;;;;;5019691;28;20661;-85
2021/10/16 09:52:37;;;;;;;28.10;17.63;;;13.70;80.10;;;;;;5010081;28;20021;-85
2021/10/16 09:55:18;;;;;;;37.00;23.33;;;13.70;79.80;;;;;;5026341;28;20036;-84
2021/10/16 09:57:45;;;;;;;54.78;29.80;;;13.80;80.10;;;;;;5020303;28;20053;-86
2021/10/16 10:00:17;;;;;;;65.88;35.80;;;13.70;80.50;;;;;;5023175;28;20026;-85
2021/10/16 10:02:56;;;;;;;64.07;36.55;;;13.70;80.50;;;;;;5019578;28;20021;-88
2021/10/16 10:05:23;;;;;;;72.75;36.70;;;13.80;80.70;;;;;;5032899;28;20087;-84
2021/10/16 10:07:49;;;;;;;67.43;35.03;;;14.00;80.60;;;;;;5034540;28;20026;-85
2021/10/16 10:10:15;;;;;;;57.85;30.20;;;14.10;80.10;;;;;;5031594;28;20075;-86
2021/10/16 10:12:41;;;;;;;66.93;35.10;;;14.00;79.40;;;;;;5032700;28;20021;-86
2021/10/16 10:15:08;;;;;;;66.85;38.08;;;14.10;79.90;;;;;;5033788;28;20431;-87
2021/10/16 10:17:34;;;;;;;65.10;34.22;;;14.20;80.30;;;;;;5033625;28;20029;-86
2021/10/16 10:20:07;;;;;;;56.75;31.13;;;14.20;80.20;;;;;;5031342;28;20029;-87
2021/10/16 10:22:36;;;;;;;61.67;34.50;;;14.20;80.30;;;;;;5024556;28;20048;-86
2021/10/16 10:25:12;;;;;;;62.30;33.15;;;14.20;80.30;;;;;;5027681;28;20013;-88
2021/10/16 10:27:45;;;;;;;45.58;28.58;;;14.30;80.50;;;;;;5046417;28;20041;-87
2021/10/16 10:30:49;;;;;;;38.92;26.30;;;14.40;81.40;;;;;;5023477;28;20022;-85
2021/10/16 10:33:15;;;;;;;46.42;29.20;;;14.70;80.90;;;;;;5020998;28;20062;-88
2021/10/16 10:36:09;;;;;;;43.95;26.17;;;14.80;80.80;;;;;;5005570;28;20075;-84
2021/10/16 10:38:37;;;;;;;42.78;25.42;;;14.90;80.80;;;;;;5033034;28;20049;-81
2021/10/16 10:41:21;;;;;;;36.00;23.98;;;15.10;80.70;;;;;;5024179;28;20025;-84
2021/10/16 10:43:47;;;;;;;33.55;21.25;;;15.10;79.70;;;;;;5025058;28;20037;-83
2021/10/16 10:46:13;;;;;;;30.25;19.38;;;15.20;79.40;;;;;;5020762;28;20535;-83
2021/10/16 10:48:44;;;;;;;25.92;17.40;;;15.30;79.30;;;;;;5026443;28;20030;-81
2021/10/16 10:51:10;;;;;;;25.25;18.00;;;15.40;78.80;;;;;;5024502;28;20018;-83
2021/10/16 10:53:42;;;;;;;22.55;15.68;;;15.50;78.50;;;;;;5019453;28;20026;-85
2021/10/16 10:56:19;;;;;;;20.52;13.98;;;15.60;76.80;;;;;;5015887;28;20029;-80
2021/10/16 10:58:56;;;;;;;20.55;13.10;;;15.60;75.60;;;;;;5029299;28;20037;-79
2021/10/16 11:01:45;;;;;;;19.10;12.88;;;15.70;75.80;;;;;;5032039;28;20041;-79
2021/10/16 11:04:30;;;;;;;19.88;13.57;;;15.80;75.80;;;;;;5035177;28;20029;-79
2021/10/16 11:07:02;;;;;;;20.15;13.10;;;16.00;75.30;;;;;;5034421;28;20043;-78
2021/10/16 11:09:27;;;;;;;23.92;14.95;;;16.00;74.70;;;;;;5038587;28;20022;-78
2021/10/16 11:11:53;;;;;;;22.90;15.82;;;16.10;75.00;;;;;;5032115;28;20044;-78
2021/10/16 11:14:19;;;;;;;24.55;17.13;;;16.10;75.10;;;;;;5035499;28;20236;-77
2021/10/16 11:16:54;;;;;;;21.88;15.23;;;16.20;74.60;;;;;;5034477;28;20030;-76
2021/10/16 11:19:20;;;;;;;23.15;14.65;;;16.20;73.60;;;;;;5029993;28;20041;-76
2021/10/16 11:21:58;;;;;;;24.75;14.80;;;16.30;73.10;;;;;;5037554;28;20030;-76
2021/10/16 11:24:25;;;;;;;18.13;12.35;;;16.40;72.70;;;;;;5027067;28;20079;-78
2021/10/16 11:26:57;;;;;;;20.80;13.23;;;16.40;70.30;;;;;;5034112;28;20021;-76
2021/10/16 11:29:30;;;;;;;17.00;12.02;;;16.50;69.10;;;;;;5029740;28;20036;-81
2021/10/16 11:32:17;;;;;;;15.45;10.40;;;16.50;69.60;;;;;;5043344;28;20017;-82
2021/10/16 11:34:55;;;;;;;17.75;11.70;;;16.50;68.50;;;;;;5028392;28;20021;-84
2021/10/16 11:37:58;;;;;;;16.10;10.48;;;16.60;68.50;;;;;;5035996;28;20478;-80
2021/10/16 11:40:26;;;;;;;20.90;10.27;;;16.60;67.50;;;;;;5017738;28;20033;-82
2021/10/16 11:43:01;;;;;;;18.50;10.15;;;16.70;69.30;;;;;;5037876;28;20052;-78
2021/10/16 11:45:28;;;;;;;13.82;9.85;;;16.80;68.60;;;;;;5027540;28;20058;-77
2021/10/16 11:47:57;;;;;;;15.95;10.63;;;16.80;68.40;;;;;;5022434;28;20026;-77
2021/10/16 11:50:26;;;;;;;14.25;9.73;;;16.90;68.70;;;;;;5029078;28;20487;-77
2021/10/16 11:53:16;;;;;;;14.05;8.63;;;16.90;68.50;;;;;;5026990;28;20778;-77
2021/10/16 11:55:55;;;;;;;13.48;8.43;;;17.00;68.10;;;;;;5027252;28;20026;-78
2021/10/16 11:58:22;;;;;;;18.92;10.73;;;17.00;67.40;;;;;;5029081;28;20021;-78
2021/10/16 12:00:52;;;;;;;18.60;11.57;;;17.10;68.20;;;;;;5029343;28;20053;-77
2021/10/16 12:03:39;;;;;;;18.58;12.68;;;17.10;67.70;;;;;;5027327;28;20076;-77
2021/10/16 12:06:30;;;;;;;17.45;10.13;;;17.10;67.30;;;;;;5029258;28;20124;-77
2021/10/16 12:09:00;;;;;;;14.27;9.73;;;17.20;67.40;;;;;;5031521;28;20028;-77
2021/10/16 12:11:29;;;;;;;;;;;17.20;67.90;;;;;;5028620;28;20029;-78
2021/10/16 12:13:59;;;;;;;15.75;8.82;;;17.30;66.60;;;;;;5026151;28;19910;-78
2021/10/16 12:16:32;;;;;;;15.23;9.80;;;17.30;66.40;;;;;;5024108;28;20037;-77
2021/10/16 12:19:00;;;;;;;11.57;7.93;;;17.40;65.10;;;;;;5026317;28;20730;-76
2021/10/16 12:21:31;;;;;;;16.52;10.70;;;17.40;64.10;;;;;;5036924;28;20091;-76
2021/10/16 12:23:59;;;;;;;14.20;8.85;;;17.30;64.50;;;;;;5037565;28;20085;-76
2021/10/16 12:26:30;;;;;;;15.10;9.07;;;17.40;64.60;;;;;;5036991;28;20044;-77
2021/10/16 12:29:01;;;;;;;14.48;9.23;;;17.50;65.40;;;;;;5036880;28;20361;-77
2021/10/16 12:31:27;;;;;;;21.70;9.18;;;17.50;65.70;;;;;;5036748;28;20022;-76
2021/10/16 12:34:05;;;;;;;13.07;8.98;;;17.50;66.30;;;;;;5035792;28;20506;-77
2021/10/16 12:36:39;;;;;;;18.02;10.27;;;17.50;64.90;;;;;;5030990;28;20068;-77
2021/10/16 12:39:09;;;;;;;16.55;11.48;;;17.40;64.60;;;;;;5036784;28;20025;-77
2021/10/16 12:41:46;;;;;;;15.20;11.32;;;17.40;64.40;;;;;;5036596;28;20085;-77